URMT

Stavropol Shpakovskoye Airport

Stavropol, Russian Federation
TAF URMT 232000Z 2321/2406 30003G08MPS 9999 BKN020 TEMPO 2321/2403 2000 BR BKN005 BKN020
Issued Valid From Valid To
Apr-23 @ 20:00 UTC
(3 hours ago)
Apr-23 @ 21:00 UTC
(2 hours ago)
Apr-24 @ 06:00 UTC
(in 7 hours)
Apr-23 @ 21:00 to Apr-24 @ 06:00
TAF URMT 232000Z 2321/2406 30003G08MPS 9999 BKN020
Wind Visibility Clouds
300° at 6 knots
 Gusting to 16 knots
10,000+ meters
  • Broken at 2,000' AGL
Temporary Apr-23 @ 21:00 to Apr-24 @ 03:00
TEMPO 2321/2403 2000 BR BKN005 BKN020
Visibility Clouds Conditions
1,996 meters
  • Broken at 500' AGL
  • Broken at 2,000' AGL
  • Mist
TAF URMT 232000Z 2321/2406 30003G08MPS 9999 BKN020 TEMPO 2321/2403 2000 BR BKN005 BKN020
Issued Apr-23 @ 20:00 UTC
(3 hours ago)
Valid From Apr-23 @ 21:00 UTC
(2 hours ago)
Valid To Apr-24 @ 06:00 UTC
(in 7 hours)
Apr-23 @ 21:00 - Apr-24 @ 06:00
Wind Visibility
300° at 6 knots
 Gusting to 16 knots
10,000+ meters
Clouds
  • Broken at 2,000' AGL
Temporary Apr-23 @ 21:00 - Apr-24 @ 03:00
Clouds
  • Broken at 500' AGL
  • Broken at 2,000' AGL
Conditions
  • Mist